Time;durP1;ratioP1;P1;durP2;ratioP2;P2;SDS_P1;SDS_P2;PMS_P1;PMS_P2;Temp;Humidity;BMP_temperature;BMP_pressure;BME280_temperature;BME280_humidity;BME280_pressure;Samples;Min_cycle;Max_cycle;Signal;HPM_P1;HPM_P2
2022/12/08 00:01:10;;;;;;;0.10;0.10;;;;;;;6.00;72.71;101244.00;5038350;28;20120;-85
2022/12/08 00:03:37;;;;;;;0.10;0.10;;;;;;;5.97;72.87;101241.34;5041948;28;20492;-85
2022/12/08 00:09:22;;;;;;;0.10;0.10;;;;;;;5.94;73.05;101226.41;5043495;28;20403;-84
2022/12/08 00:11:38;;;;;;;0.10;0.10;;;;;;;5.99;73.08;101215.94;5046295;28;20051;-84
2022/12/08 00:14:04;;;;;;;0.20;0.20;;;;;;;6.01;72.98;101215.94;5049454;28;20028;-84
2022/12/08 00:16:30;;;;;;;0.20;0.20;;;;;;;6.04;72.64;101200.19;5043829;28;20037;-84
2022/12/08 00:18:56;;;;;;;0.10;0.10;;;;;;;6.02;72.89;101184.41;5037556;28;20041;-85
2022/12/08 00:21:22;;;;;;;0.10;0.10;;;;;;;6.03;72.69;101190.53;5047033;28;20032;-85
2022/12/08 00:23:48;;;;;;;0.10;0.10;;;;;;;6.02;72.69;101167.72;5051067;28;20067;-85
2022/12/08 00:26:14;;;;;;;0.20;0.20;;;;;;;6.01;72.77;101172.09;5044944;28;20029;-85
2022/12/08 00:28:41;;;;;;;0.10;0.10;;;;;;;6.01;72.91;101172.09;5049752;28;20404;-85
2022/12/08 00:31:09;;;;;;;0.20;0.20;;;;;;;5.99;72.94;101164.22;5052327;28;20036;-85
2022/12/08 00:33:35;;;;;;;0.10;0.10;;;;;;;5.96;72.81;101158.91;5041892;28;20478;-85
2022/12/08 00:36:06;;;;;;;0.10;0.10;;;;;;;5.96;72.73;101163.28;5044559;28;20056;-86
2022/12/08 00:38:33;;;;;;;0.10;0.10;;;;;;;5.89;72.93;101161.50;5046981;28;20029;-85
2022/12/08 00:40:59;;;;;;;0.20;0.20;;;;;;;5.86;73.11;101167.63;5041091;28;20014;-85
2022/12/08 00:43:25;;;;;;;0.10;0.10;;;;;;;5.83;73.18;101150.09;5050554;28;20028;-85
2022/12/08 00:45:51;;;;;;;0.10;0.10;;;;;;;5.78;73.09;101149.19;5047360;28;20492;-85
2022/12/08 00:48:17;;;;;;;0.10;0.10;;;;;;;5.78;72.90;101153.56;5054116;28;20119;-85
2022/12/08 00:50:43;;;;;;;0.10;0.10;;;;;;;5.72;73.14;101148.25;5046940;28;20551;-85
2022/12/08 00:53:10;;;;;;;0.10;0.10;;;;;;;5.69;73.12;101143.00;5040587;28;20030;-85
2022/12/08 00:55:36;;;;;;;0.15;0.15;;;;;;;5.68;73.21;101139.47;5039018;28;20029;-85
2022/12/08 00:58:02;;;;;;;0.10;0.10;;;;;;;5.67;73.04;101137.75;5043148;28;20029;-86
2022/12/08 01:00:28;;;;;;;0.10;0.10;;;;;;;5.70;73.23;101139.50;5041730;28;20041;-85
2022/12/08 01:02:54;;;;;;;0.17;0.17;;;;;;;5.69;73.11;101138.63;5038068;28;20401;-85
2022/12/08 01:05:20;;;;;;;0.20;0.20;;;;;;;5.66;73.05;101134.22;5035361;28;20018;-85
2022/12/08 01:07:48;;;;;;;0.10;0.10;;;;;;;5.63;72.99;101128.06;5031101;28;20044;-85
2022/12/08 01:10:14;;;;;;;0.20;0.20;;;;;;;5.61;73.25;101130.69;5036759;28;20025;-85
2022/12/08 01:12:40;;;;;;;0.10;0.10;;;;;;;5.58;73.32;101125.44;5027758;28;20057;-85
2022/12/08 01:15:07;;;;;;;0.10;0.10;;;;;;;5.56;73.67;101126.28;5034718;28;20072;-85
2022/12/08 01:17:33;;;;;;;0.47;0.47;;;;;;;5.57;73.96;101117.53;5042976;28;20033;-85
2022/12/08 01:20:00;;;;;;;0.20;0.20;;;;;;;5.58;73.80;101125.44;5034017;28;20051;-85
2022/12/08 01:22:27;;;;;;;5.07;3.03;;;;;;;5.59;73.93;101115.78;5036523;28;20034;-85
2022/12/08 01:24:53;;;;;;;1.13;1.10;;;;;;;5.53;74.55;101113.13;5059172;28;20045;-85
2022/12/08 01:27:19;;;;;;;0.57;0.47;;;;;;;5.59;74.88;101127.16;5062257;28;20508;-85
2022/12/08 01:29:45;;;;;;;0.10;0.10;;;;;;;5.62;74.81;101131.56;5049831;28;20021;-85
2022/12/08 01:32:11;;;;;;;0.10;0.10;;;;;;;5.71;74.61;101129.00;5049153;28;20092;-85
2022/12/08 01:34:37;;;;;;;0.10;0.10;;;;;;;5.73;74.36;101108.84;5048082;28;20032;-85
2022/12/08 01:37:03;;;;;;;0.10;0.10;;;;;;;5.78;74.16;101117.63;5045767;28;20025;-85
2022/12/08 01:39:29;;;;;;;0.15;0.15;;;;;;;5.79;74.54;101118.50;5050803;28;20029;-85
2022/12/08 01:41:55;;;;;;;0.10;0.10;;;;;;;5.85;74.35;101107.16;5055574;28;20085;-86
2022/12/08 01:46:59;;;;;;;4.38;2.70;;;;;;;5.90;74.72;101110.66;5063484;28;20140;-79
2022/12/08 01:49:33;;;;;;;0.10;0.10;;;;;;;5.94;74.36;101101.91;5063674;28;20037;-79
2022/12/08 01:52:10;;;;;;;0.10;0.10;;;;;;;5.96;74.40;101108.91;5057443;28;20045;-79
2022/12/08 01:54:46;;;;;;;0.10;0.10;;;;;;;6.02;74.18;101109.84;5048000;28;20388;-80
2022/12/08 01:57:25;;;;;;;0.10;0.10;;;;;;;6.04;74.09;101114.22;5045942;28;20036;-79
2022/12/08 02:00:02;;;;;;;0.32;0.32;;;;;;;6.08;74.04;101110.75;5048182;28;20036;-79
2022/12/08 02:02:34;;;;;;;0.20;0.20;;;;;;;6.11;74.22;101100.22;5044567;28;20045;-79
2022/12/08 02:05:02;;;;;;;0.10;0.10;;;;;;;6.14;74.21;101100.25;5050638;28;20036;-80
2022/12/08 02:07:29;;;;;;;0.10;0.10;;;;;;;6.18;74.12;101108.13;5044005;28;20047;-79
2022/12/08 02:09:56;;;;;;;0.10;0.10;;;;;;;6.21;74.25;101105.53;5044659;28;20495;-79
2022/12/08 02:12:22;;;;;;;0.17;0.17;;;;;;;6.22;74.11;101102.91;5045153;28;20516;-78
2022/12/08 02:14:48;;;;;;;0.17;0.17;;;;;;;6.25;74.01;101096.75;5041075;28;20111;-79
2022/12/08 02:17:41;;;;;;;0.10;0.10;;;;;;;6.31;73.92;101102.03;5044244;28;20094;-80
2022/12/08 02:23:15;;;;;;;0.10;0.10;;;;;;;6.33;74.12;101095.03;5048305;27;21733;-79
2022/12/08 02:29:15;;;;;;;0.10;0.10;;;;;;;6.44;73.92;101089.75;5064026;28;20416;-79
2022/12/08 02:32:17;;;;;;;0.10;0.10;;;;;;;6.46;74.22;101086.25;5063747;28;20060;-79
2022/12/08 02:34:53;;;;;;;0.10;0.10;;;;;;;6.42;73.93;101079.25;5063454;28;20025;-80
2022/12/08 02:37:34;;;;;;;0.10;0.10;;;;;;;6.45;74.22;101081.84;5056797;28;20101;-80
2022/12/08 02:40:14;;;;;;;0.20;0.20;;;;;;;6.46;73.94;101080.13;5050692;28;20462;-80
2022/12/08 02:42:54;;;;;;;0.10;0.10;;;;;;;6.41;74.34;101081.88;5045424;28;20036;-80
2022/12/08 02:45:28;;;;;;;0.10;0.10;;;;;;;6.40;73.74;101074.84;5045139;28;20025;-79
2022/12/08 02:47:56;;;;;;;0.10;0.10;;;;;;;6.36;73.95;101073.97;5048436;28;20640;-81
2022/12/08 02:50:22;;;;;;;0.10;0.10;;;;;;;6.33;73.85;101079.25;5051851;28;20087;-80
2022/12/08 02:52:48;;;;;;;0.10;0.10;;;;;;;6.29;74.24;101077.47;5044950;28;20152;-80
2022/12/08 02:58:18;;;;;;;0.20;0.20;;;;;;;6.27;74.42;101068.72;5065367;28;20401;-79
2022/12/08 03:03:51;;;;;;;0.10;0.10;;;;;;;6.14;74.14;101026.59;5075928;27;20420;-79
2022/12/08 03:06:44;;;;;;;0.10;0.10;;;;;;;6.15;74.14;101027.47;5069003;28;20043;-80
2022/12/08 03:09:17;;;;;;;;;;;;;;;6.22;73.64;101033.59;5071445;28;20376;-80
2022/12/08 03:12:04;;;;;;;0.17;0.17;;;;;;;6.19;73.90;101038.88;5063982;28;19917;-79
2022/12/08 03:14:32;;;;;;;0.10;0.10;;;;;;;6.10;73.96;101034.47;5067820;28;20039;-79
2022/12/08 03:16:59;;;;;;;0.10;0.10;;;;;;;6.07;73.68;101023.94;5065514;28;20061;-79
2022/12/08 03:19:33;;;;;;;0.10;0.10;;;;;;;6.09;73.67;101033.59;5067860;28;20203;-79
2022/12/08 03:22:02;;;;;;;0.10;0.10;;;;;;;6.04;73.56;101032.69;5066050;28;20069;-79
2022/12/08 03:24:35;;;;;;;0.10;0.10;;;;;;;6.05;73.52;101030.97;5065746;28;20116;-79
2022/12/08 03:27:08;;;;;;;0.10;0.10;;;;;;;5.99;73.74;101022.19;5067036;28;20035;-79
2022/12/08 03:29:34;;;;;;;0.20;0.20;;;;;;;6.00;73.43;101023.06;5068299;28;20120;-79
2022/12/08 03:32:13;;;;;;;0.10;0.10;;;;;;;6.04;73.65;101029.19;5067192;28;20119;-79
2022/12/08 03:34:43;;;;;;;0.20;0.20;;;;;;;6.02;73.60;101028.31;5068642;28;20476;-79
2022/12/08 03:37:09;;;;;;;0.10;0.10;;;;;;;5.99;73.74;101030.06;5066464;28;20040;-80
2022/12/08 03:39:35;;;;;;;0.20;0.20;;;;;;;6.04;73.62;101019.53;5068746;28;20036;-79
2022/12/08 03:42:01;;;;;;;0.10;0.10;;;;;;;6.00;74.12;101007.25;5075417;28;20025;-79
2022/12/08 03:44:27;;;;;;;0.20;0.20;;;;;;;6.03;73.75;101011.66;5074695;28;20043;-79
2022/12/08 03:46:53;;;;;;;0.10;0.10;;;;;;;5.98;73.66;101006.34;5072314;28;20033;-80
2022/12/08 03:49:19;;;;;;;0.17;0.17;;;;;;;5.97;73.75;101012.50;5070672;28;20029;-80
2022/12/08 03:51:45;;;;;;;0.20;0.20;;;;;;;5.96;73.75;101006.34;5064247;28;20598;-80
2022/12/08 03:54:12;;;;;;;0.10;0.10;;;;;;;5.94;73.75;101002.84;5074308;28;20128;-80
2022/12/08 03:56:38;;;;;;;0.10;0.10;;;;;;;5.92;73.79;100999.34;5071238;28;20029;-79
2022/12/08 03:59:06;;;;;;;0.10;0.10;;;;;;;5.94;73.75;100983.56;5070406;28;20058;-80
2022/12/08 04:01:32;;;;;;;0.10;0.10;;;;;;;5.93;73.97;100989.69;5070737;28;20029;-80
2022/12/08 04:03:58;;;;;;;0.20;0.20;;;;;;;5.94;73.96;100991.44;5071122;28;20043;-80
2022/12/08 04:06:25;;;;;;;0.15;0.15;;;;;;;5.94;73.70;100988.81;5069091;28;20491;-80
2022/12/08 04:08:52;;;;;;;0.10;0.10;;;;;;;5.98;73.46;100993.19;5069882;28;20274;-80
2022/12/08 04:11:18;;;;;;;0.10;0.10;;;;;;;5.98;73.79;100980.03;5063863;28;20033;-79
2022/12/08 04:13:45;;;;;;;0.20;0.20;;;;;;;5.95;73.63;100987.94;5056060;28;20029;-80
2022/12/08 04:16:16;;;;;;;0.20;0.20;;;;;;;5.98;74.15;100980.03;5056395;28;20025;-80
2022/12/08 04:18:42;;;;;;;0.10;0.10;;;;;;;5.93;73.70;100993.22;5053595;28;20101;-80
2022/12/08 04:21:08;;;;;;;0.10;0.10;;;;;;;5.93;73.41;100990.59;5056521;28;20021;-80
2022/12/08 04:23:34;;;;;;;0.20;0.20;;;;;;;5.94;73.85;100983.56;5054715;28;20040;-80
2022/12/08 04:26:00;;;;;;;0.10;0.10;;;;;;;5.96;73.51;100977.41;5054120;28;20037;-80
2022/12/08 04:28:28;;;;;;;0.05;0.05;;;;;;;5.95;73.53;100978.28;5056282;28;20104;-79
2022/12/08 04:30:54;;;;;;;0.10;0.10;;;;;;;5.92;73.53;100977.41;5058062;28;20024;-80
2022/12/08 04:33:20;;;;;;;0.20;0.20;;;;;;;5.83;73.45;100979.16;5058908;28;20044;-79
2022/12/08 04:35:47;;;;;;;0.15;0.15;;;;;;;5.88;73.46;100986.19;5056523;28;20040;-79
2022/12/08 04:38:13;;;;;;;0.10;0.10;;;;;;;5.86;73.47;100978.28;5057899;28;20470;-79
2022/12/08 04:40:40;;;;;;;0.10;0.10;;;;;;;5.85;73.45;100975.66;5053587;28;20045;-80
2022/12/08 04:43:06;;;;;;;0.10;0.10;;;;;;;5.87;73.25;100980.06;5056254;28;20406;-79
2022/12/08 04:45:32;;;;;;;0.10;0.10;;;;;;;5.86;73.44;100973.03;5056340;28;20033;-80
2022/12/08 04:48:00;;;;;;;0.10;0.10;;;;;;;5.85;73.45;100976.53;5057839;28;20032;-80
2022/12/08 04:50:26;;;;;;;0.10;0.10;;;;;;;5.90;73.18;100984.44;5056763;28;20126;-80
2022/12/08 04:52:53;;;;;;;0.10;0.10;;;;;;;5.92;73.37;100978.31;5055547;28;20033;-80
2022/12/08 04:55:20;;;;;;;0.10;0.10;;;;;;;5.95;73.20;100977.44;5055288;28;20071;-79
2022/12/08 04:57:46;;;;;;;0.10;0.10;;;;;;;5.93;73.16;100976.53;5055528;28;20495;-80
2022/12/08 05:00:13;;;;;;;0.10;0.10;;;;;;;5.94;73.20;100968.66;5057155;28;20506;-80
2022/12/08 05:02:39;;;;;;;0.20;0.20;;;;;;;6.01;73.11;100964.31;5057541;28;20024;-80
2022/12/08 05:05:05;;;;;;;0.20;0.20;;;;;;;5.99;73.27;100966.06;5058523;28;20102;-80
2022/12/08 05:07:32;;;;;;;0.10;0.10;;;;;;;6.06;73.26;100959.94;5055218;28;20529;-79
2022/12/08 05:09:58;;;;;;;0.10;0.10;;;;;;;6.10;73.26;100951.16;5054891;28;20069;-80
2022/12/08 05:12:24;;;;;;;0.10;0.10;;;;;;;6.08;73.26;100952.94;5054109;28;20116;-80
2022/12/08 05:14:50;;;;;;;0.10;0.10;;;;;;;6.08;73.04;100937.16;5057304;28;20108;-79
2022/12/08 05:17:17;;;;;;;0.10;0.10;;;;;;;6.09;72.98;100938.91;5059099;28;20061;-79
2022/12/08 05:19:44;;;;;;;0.10;0.10;;;;;;;6.05;73.00;100942.38;5064153;28;20025;-78
2022/12/08 05:22:10;;;;;;;0.10;0.10;;;;;;;6.05;72.91;100931.88;5067148;28;20024;-79
2022/12/08 05:24:37;;;;;;;0.10;0.10;;;;;;;6.05;73.02;100931.00;5061407;28;20029;-79
2022/12/08 05:27:03;;;;;;;0.17;0.17;;;;;;;5.98;72.91;100923.09;5056719;28;20039;-80
2022/12/08 05:29:29;;;;;;;0.10;0.10;;;;;;;5.99;72.90;100924.88;5057691;28;20070;-79
2022/12/08 05:31:55;;;;;;;0.20;0.20;;;;;;;6.01;73.03;100929.22;5058000;28;20028;-79
2022/12/08 05:34:21;;;;;;;0.20;0.20;;;;;;;6.02;73.13;100926.63;5059354;28;20035;-79
2022/12/08 05:36:47;;;;;;;0.10;0.10;;;;;;;5.97;72.86;100923.94;5058034;28;20357;-79
2022/12/08 05:39:14;;;;;;;0.10;0.10;;;;;;;5.98;72.90;100927.44;5057500;28;20054;-79
2022/12/08 05:41:40;;;;;;;0.10;0.10;;;;;;;6.03;72.93;100930.13;5059933;28;20025;-79
2022/12/08 05:44:07;;;;;;;0.20;0.20;;;;;;;6.02;72.98;100941.50;5056815;28;20129;-79
2022/12/08 05:46:34;;;;;;;0.20;0.20;;;;;;;6.05;73.04;100936.25;5059266;28;20028;-79
2022/12/08 05:49:01;;;;;;;0.15;0.15;;;;;;;6.06;72.95;100938.88;5058581;28;20032;-80
2022/12/08 05:51:28;;;;;;;0.10;0.10;;;;;;;6.04;73.02;100931.88;5056472;28;20394;-81
2022/12/08 05:53:55;;;;;;;0.10;0.10;;;;;;;6.08;72.94;100936.25;5055762;28;20434;-79
2022/12/08 05:56:22;;;;;;;0.70;0.70;;;;;;;6.12;72.92;100938.88;5049050;28;20513;-79
2022/12/08 05:58:49;;;;;;;0.10;0.10;;;;;;;6.07;72.89;100938.00;5046477;28;20128;-78
2022/12/08 06:01:31;;;;;;;0.10;0.10;;;;;;;6.12;72.93;100946.78;5047937;28;20096;-78
2022/12/08 06:03:59;;;;;;;0.10;0.10;;;;;;;5.96;72.95;100963.41;5050924;28;20037;-78
2022/12/08 06:06:26;;;;;;;0.10;0.10;;;;;;;5.78;72.74;100965.13;5048782;28;20060;-79
2022/12/08 06:08:52;;;;;;;0.20;0.20;;;;;;;5.61;72.60;100959.84;5050339;28;20071;-77
2022/12/08 06:11:22;;;;;;;0.10;0.10;;;;;;;5.50;72.56;100962.44;5048502;28;20036;-79
2022/12/08 06:13:49;;;;;;;0.10;0.10;;;;;;;5.28;72.40;100984.25;5052926;28;20025;-79
2022/12/08 06:16:16;;;;;;;0.10;0.10;;;;;;;5.13;72.58;100985.94;5046942;28;20035;-79
2022/12/08 06:18:43;;;;;;;0.10;0.10;;;;;;;5.03;72.65;100978.88;5052968;28;20032;-80
2022/12/08 06:21:11;;;;;;;0.10;0.10;;;;;;;4.94;72.83;100984.09;5051283;28;20029;-79
2022/12/08 06:23:38;;;;;;;0.17;0.17;;;;;;;4.82;72.99;100991.03;5056549;28;20100;-79
2022/12/08 06:26:06;;;;;;;0.13;0.13;;;;;;;4.74;73.16;100986.63;5062629;28;20028;-79
2022/12/08 06:28:33;;;;;;;0.10;0.10;;;;;;;4.72;72.95;100989.22;5058097;28;20040;-80
2022/12/08 06:31:05;;;;;;;0.17;0.17;;;;;;;4.61;73.26;100983.91;5053843;28;20506;-79
2022/12/08 06:33:31;;;;;;;0.10;0.10;;;;;;;4.60;72.88;100979.53;5051688;28;20602;-79
2022/12/08 06:35:58;;;;;;;0.10;0.10;;;;;;;4.53;73.35;100972.47;5054627;28;20526;-78
2022/12/08 06:38:24;;;;;;;0.10;0.10;;;;;;;4.59;73.04;100969.03;5057671;28;20029;-80
2022/12/08 06:40:56;;;;;;;0.10;0.10;;;;;;;4.61;73.10;100960.28;5052940;28;20021;-79
2022/12/08 06:43:22;;;;;;;0.20;0.20;;;;;;;4.63;73.02;100962.91;5050236;28;20029;-79
2022/12/08 06:45:48;;;;;;;0.17;0.17;;;;;;;4.60;73.00;100969.03;5047249;28;20040;-79
2022/12/08 06:48:15;;;;;;;0.10;0.10;;;;;;;4.59;73.43;100961.16;5047655;28;20091;-80
2022/12/08 06:50:41;;;;;;;0.10;0.10;;;;;;;4.62;73.51;100955.91;5050043;28;20025;-80
2022/12/08 06:53:07;;;;;;;0.10;0.10;;;;;;;4.63;73.36;100960.28;5052354;28;20033;-79
2022/12/08 06:55:33;;;;;;;0.10;0.10;;;;;;;4.65;73.63;100959.44;5042778;28;20045;-79
2022/12/08 06:57:59;;;;;;;0.10;0.10;;;;;;;4.69;73.75;100942.81;5049410;28;20060;-79
2022/12/08 07:00:26;;;;;;;0.10;0.10;;;;;;;4.74;73.70;100944.63;5047110;28;20024;-79
2022/12/08 07:02:52;;;;;;;0.17;0.17;;;;;;;4.77;73.46;100939.38;5048859;28;20028;-79
2022/12/08 07:05:18;;;;;;;0.10;0.10;;;;;;;4.78;73.91;100939.38;5041564;28;20043;-79
2022/12/08 07:07:44;;;;;;;0.20;0.20;;;;;;;4.79;73.94;100943.75;5045002;28;20107;-78
2022/12/08 07:10:10;;;;;;;0.20;0.20;;;;;;;4.78;73.84;100944.63;5048754;28;20033;-79
2022/12/08 07:12:36;;;;;;;0.10;0.10;;;;;;;4.77;74.25;100939.38;5050396;28;20029;-80
2022/12/08 07:15:03;;;;;;;0.20;0.20;;;;;;;4.79;73.92;100941.13;5048367;28;20017;-79
2022/12/08 07:17:29;;;;;;;0.20;0.20;;;;;;;4.76;73.83;100946.38;5048879;28;20033;-79
2022/12/08 07:19:55;;;;;;;0.10;0.10;;;;;;;4.76;73.81;100949.00;5052874;28;20037;-80
2022/12/08 07:22:21;;;;;;;0.10;0.10;;;;;;;4.71;73.56;100950.72;5052248;28;20029;-78
2022/12/08 07:24:47;;;;;;;0.10;0.10;;;;;;;4.70;73.69;100948.97;5053085;28;20091;-79
2022/12/08 07:27:13;;;;;;;0.20;0.20;;;;;;;4.67;73.86;100936.72;5054302;28;20043;-79
2022/12/08 07:29:39;;;;;;;0.10;0.10;;;;;;;4.69;73.81;100945.44;5054628;28;20029;-80
2022/12/08 07:32:07;;;;;;;0.20;0.20;;;;;;;4.71;73.87;100934.97;5049553;28;20541;-79
2022/12/08 07:34:33;;;;;;;0.10;0.10;;;;;;;4.67;74.10;100935.81;5050870;28;20025;-79
2022/12/08 07:37:00;;;;;;;0.10;0.10;;;;;;;4.65;74.12;100937.56;5052507;28;20072;-79
2022/12/08 07:39:26;;;;;;;0.20;0.20;;;;;;;4.64;73.56;100933.19;5044967;28;20450;-80
2022/12/08 07:41:52;;;;;;;0.10;0.10;;;;;;;4.63;73.80;100940.16;5050544;28;20093;-80
2022/12/08 07:44:18;;;;;;;0.10;0.10;;;;;;;4.65;74.07;100945.44;5052307;28;20041;-79
2022/12/08 07:46:45;;;;;;;0.10;0.10;;;;;;;4.63;73.97;100931.41;5056624;28;20537;-79
2022/12/08 07:49:11;;;;;;;0.10;0.10;;;;;;;4.63;74.18;100947.16;5051361;28;20037;-80
2022/12/08 07:51:37;;;;;;;0.10;0.10;;;;;;;4.66;73.70;100937.56;5051357;28;20029;-80
2022/12/08 07:54:03;;;;;;;0.10;0.10;;;;;;;4.68;74.00;100941.06;5055503;28;20029;-80
2022/12/08 07:56:29;;;;;;;0.10;0.10;;;;;;;4.72;73.87;100947.22;5054736;28;20029;-80
2022/12/08 07:58:55;;;;;;;0.10;0.10;;;;;;;4.77;74.07;100940.25;5051508;28;20034;-80
2022/12/08 08:01:29;;;;;;;0.10;0.10;;;;;;;4.83;73.90;100939.41;5039227;28;20033;-79
2022/12/08 08:03:57;;;;;;;0.10;0.10;;;;;;;4.84;74.40;100936.78;5049953;28;20083;-80
2022/12/08 08:06:24;;;;;;;0.10;0.10;;;;;;;4.87;74.17;100943.78;5054402;28;20053;-79
2022/12/08 08:08:50;;;;;;;0.10;0.10;;;;;;;4.91;74.05;100942.06;5046786;28;20056;-80
2022/12/08 08:11:16;;;;;;;0.10;0.10;;;;;;;4.91;74.06;100932.44;5051874;28;20041;-80
2022/12/08 08:13:42;;;;;;;0.10;0.10;;;;;;;4.94;74.60;100921.94;5052895;28;20032;-78
2022/12/08 08:16:10;;;;;;;0.15;0.15;;;;;;;4.96;74.37;100920.22;5053353;28;20593;-80
2022/12/08 08:18:36;;;;;;;0.90;0.90;;;;;;;4.97;74.67;100921.09;5057887;28;20051;-80
2022/12/08 08:21:03;;;;;;;0.10;0.10;;;;;;;4.99;74.59;100930.72;5051204;28;20084;-80
2022/12/08 08:23:29;;;;;;;0.10;0.10;;;;;;;5.04;74.86;100938.63;5059358;28;20032;-80
2022/12/08 08:25:57;;;;;;;0.10;0.10;;;;;;;5.08;74.63;100927.25;5055992;28;20055;-80
2022/12/08 08:28:23;;;;;;;0.10;0.10;;;;;;;5.14;74.70;100939.53;5057236;28;20542;-80
2022/12/08 08:30:49;;;;;;;0.10;0.10;;;;;;;5.19;74.34;100938.69;5048263;28;20067;-80
2022/12/08 08:33:15;;;;;;;0.20;0.20;;;;;;;5.24;74.57;100936.06;5060035;28;20035;-80
2022/12/08 08:35:42;;;;;;;0.22;0.22;;;;;;;5.30;74.25;100951.00;5059766;28;20029;-81
2022/12/08 08:38:08;;;;;;;0.17;0.17;;;;;;;5.32;74.87;100943.97;5057222;28;20028;-79
2022/12/08 08:40:34;;;;;;;0.15;0.15;;;;;;;5.37;74.50;100955.41;5057009;28;20043;-81
2022/12/08 08:43:01;;;;;;;0.50;0.50;;;;;;;5.41;74.81;100958.88;5057644;28;20023;-79
2022/12/08 08:45:27;;;;;;;0.10;0.10;;;;;;;5.43;74.68;100968.56;5058799;28;20060;-80
2022/12/08 08:47:53;;;;;;;0.10;0.10;;;;;;;5.42;74.26;100972.06;5058831;28;20425;-79
2022/12/08 08:50:19;;;;;;;0.10;0.10;;;;;;;5.36;74.39;100964.16;5065106;28;20041;-78
2022/12/08 08:52:45;;;;;;;0.10;0.10;;;;;;;5.37;74.40;100959.75;5065885;28;20029;-79
2022/12/08 08:55:11;;;;;;;0.10;0.10;;;;;;;5.35;74.41;100959.75;5060247;28;20162;-80
2022/12/08 08:57:37;;;;;;;0.10;0.10;;;;;;;5.33;74.41;100957.13;5061074;28;20057;-80
2022/12/08 09:00:06;;;;;;;0.10;0.10;;;;;;;5.35;74.31;100951.88;5060313;28;20113;-81
2022/12/08 09:02:32;;;;;;;0.10;0.10;;;;;;;5.35;74.21;100949.25;5043104;28;20041;-81
2022/12/08 09:04:58;;;;;;;0.68;0.63;;;;;;;5.34;74.62;100963.25;5049746;28;20061;-79
2022/12/08 09:07:24;;;;;;;0.20;0.20;;;;;;;5.37;74.64;100952.78;5055097;28;20720;-80
2022/12/08 09:09:50;;;;;;;0.10;0.10;;;;;;;5.40;74.61;100952.78;5056145;28;20039;-80
2022/12/08 09:12:16;;;;;;;0.10;0.10;;;;;;;5.40;74.71;100958.03;5056475;28;20067;-79
2022/12/08 09:14:42;;;;;;;0.10;0.10;;;;;;;5.37;74.46;100959.75;5056305;28;20627;-80
2022/12/08 09:17:08;;;;;;;0.20;0.20;;;;;;;5.38;74.43;100948.38;5057023;28;20021;-80
2022/12/08 09:19:35;;;;;;;0.10;0.10;;;;;;;5.38;74.34;100957.13;5054912;28;20024;-80
2022/12/08 09:22:01;;;;;;;0.20;0.20;;;;;;;5.32;74.20;100955.38;5055014;28;20036;-80
2022/12/08 09:24:27;;;;;;;0.10;0.10;;;;;;;5.33;74.14;100958.88;5052836;28;20044;-79
2022/12/08 09:26:53;;;;;;;0.20;0.20;;;;;;;5.30;74.04;100962.38;5057227;28;20033;-80
2022/12/08 09:29:19;;;;;;;0.30;0.30;;;;;;;5.31;74.08;100964.13;5055096;28;20025;-80
2022/12/08 09:31:45;;;;;;;0.10;0.10;;;;;;;5.34;74.10;100961.50;5056473;28;20044;-80
2022/12/08 09:34:12;;;;;;;0.10;0.10;;;;;;;5.30;74.28;100961.50;5052832;28;20036;-80
2022/12/08 09:36:38;;;;;;;0.10;0.10;;;;;;;5.36;73.99;100964.16;5058685;28;20032;-80
2022/12/08 09:39:04;;;;;;;0.10;0.10;;;;;;;5.35;74.24;100959.75;5070936;28;20047;-79
2022/12/08 09:41:35;;;;;;;0.20;0.20;;;;;;;5.41;74.12;100959.78;5065964;28;20055;-79
2022/12/08 09:44:37;;;;;;;0.10;0.10;;;;;;;5.50;73.99;100953.69;5068367;28;20061;-79
2022/12/08 09:47:12;;;;;;;0.10;0.10;;;;;;;5.42;74.02;100958.91;5073043;28;20032;-80
2022/12/08 09:49:44;;;;;;;0.15;0.15;;;;;;;5.42;74.08;100955.41;5057821;28;20021;-80
2022/12/08 09:52:21;;;;;;;0.20;0.20;;;;;;;5.46;73.91;100958.03;5062267;28;20013;-82
2022/12/08 09:54:47;;;;;;;0.20;0.20;;;;;;;5.41;73.82;100944.03;5057990;28;20024;-79
2022/12/08 09:57:19;;;;;;;0.10;0.10;;;;;;;5.45;73.81;100951.03;5071770;28;20041;-79
2022/12/08 09:59:53;;;;;;;0.10;0.10;;;;;;;5.47;73.92;100946.66;5068116;28;20241;-79
2022/12/08 10:02:23;;;;;;;0.17;0.17;;;;;;;5.48;74.01;100943.16;5066931;28;20029;-80
2022/12/08 10:04:49;;;;;;;0.10;0.10;;;;;;;5.45;73.84;100939.66;5068404;28;20031;-80
2022/12/08 10:12:47;;;;;;;0.10;0.10;;;;;;;5.54;73.72;100933.53;5109180;27;20488;-79
2022/12/08 10:18:13;;;;;;;0.10;0.10;;;;;;;5.59;73.76;100937.06;5057798;28;20391;-79
2022/12/08 10:20:42;;;;;;;0.38;0.38;;;;;;;5.54;73.83;100936.16;5053678;28;20069;-78
2022/12/08 10:23:21;;;;;;;0.10;0.10;;;;;;;5.54;73.58;100944.91;5049252;28;20254;-78
2022/12/08 10:25:51;;;;;;;0.10;0.10;;;;;;;5.53;73.67;100943.16;5045440;28;20033;-78
2022/12/08 10:28:17;;;;;;;0.10;0.10;;;;;;;5.48;73.63;100948.44;5050968;28;20033;-79
2022/12/08 10:30:43;;;;;;;0.10;0.10;;;;;;;5.47;73.74;100943.13;5051677;28;20032;-79
2022/12/08 10:33:15;;;;;;;0.15;0.15;;;;;;;5.49;73.82;100931.75;5053802;28;20025;-79
2022/12/08 10:38:28;;;;;;;0.17;0.17;;;;;;;5.61;74.11;100930.06;5113132;27;20583;-79
2022/12/08 10:41:16;;;;;;;0.15;0.15;;;;;;;5.72;74.19;100927.41;5104420;28;20445;-80
2022/12/08 10:43:47;;;;;;;0.10;0.10;;;;;;;5.80;74.28;100925.69;5101730;28;20464;-79
2022/12/08 10:46:19;;;;;;;0.10;0.10;;;;;;;5.88;74.21;100925.69;5108270;28;20016;-80
2022/12/08 10:51:56;;;;;;;0.10;0.10;;;;;;;6.02;74.36;100925.72;5091019;28;20383;-79
2022/12/08 10:54:31;;;;;;;0.10;0.10;;;;;;;6.09;74.36;100925.75;5063830;28;20035;-79
2022/12/08 10:56:57;;;;;;;0.20;0.20;;;;;;;6.13;74.29;100926.59;5039173;28;20036;-79
2022/12/08 10:59:24;;;;;;;0.20;0.20;;;;;;;6.16;74.22;100926.63;5046071;28;20112;-79
2022/12/08 11:01:53;;;;;;;0.10;0.10;;;;;;;6.17;74.32;100917.84;5045843;28;20025;-79
2022/12/08 11:04:28;;;;;;;0.10;0.10;;;;;;;6.18;73.90;100921.34;5046496;28;20033;-79
2022/12/08 11:06:54;;;;;;;0.55;0.55;;;;;;;6.17;73.85;100914.31;5036906;28;20483;-80
2022/12/08 11:12:05;;;;;;;0.20;0.20;;;;;;;6.23;73.97;100903.78;5075718;27;1893426;-79
2022/12/08 11:14:45;;;;;;;0.20;0.20;;;;;;;6.27;73.89;100893.28;5115368;27;20099;-79
2022/12/08 11:22:38;;;;;;;0.10;0.10;;;;;;;6.30;73.46;100868.69;5064651;28;20502;-79
2022/12/08 11:27:50;;;;;;;0.22;0.22;;;;;;;6.30;73.24;100864.31;5052091;28;20395;-79
2022/12/08 11:30:19;;;;;;;0.20;0.20;;;;;;;6.27;72.51;100863.47;5046235;28;20037;-79
2022/12/08 11:32:48;;;;;;;0.20;0.20;;;;;;;6.28;72.72;100849.41;5047520;28;20036;-79
2022/12/08 11:35:23;;;;;;;0.10;0.10;;;;;;;6.26;72.20;100843.28;5049792;28;20040;-79
2022/12/08 11:37:50;;;;;;;0.20;0.20;;;;;;;6.27;72.21;100852.94;5035519;28;20033;-79
2022/12/08 11:40:31;;;;;;;0.10;0.10;;;;;;;6.31;72.58;100849.41;5051306;28;20037;-79
2022/12/08 11:45:43;;;;;;;0.20;0.20;;;;;;;6.37;72.53;100836.25;5068073;28;20372;-79
2022/12/08 11:48:19;;;;;;;0.10;0.10;;;;;;;6.44;72.40;100832.72;5052949;28;20021;-80
2022/12/08 11:50:55;;;;;;;0.10;0.10;;;;;;;6.47;72.63;100829.19;5051840;28;20681;-79
2022/12/08 11:53:46;;;;;;;0.10;0.10;;;;;;;6.54;72.47;100830.94;5049532;28;20564;-79
2022/12/08 11:56:19;;;;;;;0.20;0.20;;;;;;;6.46;72.21;100838.81;5049981;28;20045;-79
2022/12/08 11:58:51;;;;;;;0.57;0.57;;;;;;;6.37;72.11;100844.13;5050994;28;20103;-78
2022/12/08 12:01:22;;;;;;;0.95;0.95;;;;;;;6.30;71.96;100837.13;5067898;28;20010;-78
2022/12/08 12:06:53;;;;;;;0.20;0.20;;;;;;;6.24;71.36;100852.94;5054878;28;20435;-79
2022/12/08 12:09:44;;;;;;;0.10;0.10;;;;;;;6.23;71.86;100861.69;5052968;28;20029;-79
2022/12/08 12:12:50;;;;;;;0.30;0.30;;;;;;;6.21;71.47;100852.94;5056071;28;20107;-79
2022/12/08 12:18:27;;;;;;;0.10;0.10;;;;;;;6.06;72.08;100844.19;5097828;27;20337;-79
2022/12/08 12:21:03;;;;;;;0.10;0.10;;;;;;;6.03;72.07;100853.84;5080660;28;20088;-79
2022/12/08 12:24:06;;;;;;;0.10;0.10;;;;;;;6.00;71.68;100844.19;5083239;28;20025;-79
2022/12/08 12:26:38;;;;;;;0.20;0.20;;;;;;;5.88;71.79;100834.56;5081911;28;20033;-79
2022/12/08 12:29:15;;;;;;;0.10;0.10;;;;;;;5.77;71.05;100831.03;5086215;28;20115;-79
2022/12/08 12:31:47;;;;;;;0.10;0.10;;;;;;;5.69;71.28;100833.66;5078795;28;20020;-80
2022/12/08 12:34:20;;;;;;;0.10;0.10;;;;;;;5.59;71.23;100826.66;5079007;28;20016;-79